Time;durP1;ratioP1;P1;durP2;ratioP2;P2;SDS_P1;SDS_P2;PMS_P1;PMS_P2;Temp;Humidity;BMP_temperature;BMP_pressure;BME280_temperature;BME280_humidity;BME280_pressure;Samples;Min_cycle;Max_cycle;Signal;HPM_P1;HPM_P2
2022/12/04 00:01:57;;;;;;;26.92;13.45;;;1.00;99.90;;;;;;4979930;28;20110;-82
2022/12/04 00:04:37;;;;;;;29.63;12.70;;;1.00;99.90;;;;;;4978061;28;20027;-83
2022/12/04 00:07:03;;;;;;;33.97;15.30;;;1.00;99.90;;;;;;4998388;22;20195;-79
2022/12/04 00:09:29;;;;;;;28.77;13.63;;;1.10;99.90;;;;;;5032771;28;20018;-78
2022/12/04 00:11:54;;;;;;;29.70;15.07;;;1.10;99.90;;;;;;5053675;28;20025;-79
2022/12/04 00:14:20;;;;;;;34.08;15.07;;;1.10;99.90;;;;;;5054070;28;20121;-79
2022/12/04 00:16:45;;;;;;;29.40;14.13;;;1.10;99.90;;;;;;5025733;28;20052;-79
2022/12/04 00:19:11;;;;;;;33.72;15.82;;;1.00;99.90;;;;;;5039938;28;20036;-79
2022/12/04 00:21:37;;;;;;;31.27;16.13;;;1.00;99.90;;;;;;5035313;28;20068;-78
2022/12/04 00:24:03;;;;;;;34.70;16.60;;;1.00;99.90;;;;;;5052223;28;20107;-79
2022/12/04 00:26:32;;;;;;;31.65;15.38;;;1.00;99.90;;;;;;5052278;28;20017;-78
2022/12/04 00:28:58;;;;;;;32.15;15.45;;;1.00;99.90;;;;;;5035366;28;20036;-79
2022/12/04 00:31:26;;;;;;;30.45;15.35;;;0.90;99.90;;;;;;5053509;28;20025;-79
2022/12/04 00:33:52;;;;;;;30.65;15.60;;;0.90;99.90;;;;;;5053308;28;20444;-80
2022/12/04 00:36:20;;;;;;;31.52;15.02;;;1.00;99.90;;;;;;5035175;28;20029;-79
2022/12/04 00:38:47;;;;;;;30.98;14.23;;;1.00;99.90;;;;;;5054562;28;20049;-79
2022/12/04 00:41:15;;;;;;;28.73;14.70;;;1.00;99.90;;;;;;5054104;28;20041;-79
2022/12/04 00:43:41;;;;;;;35.20;16.05;;;1.00;99.90;;;;;;5054364;28;20485;-79
2022/12/04 00:46:08;;;;;;;29.67;14.90;;;1.00;99.90;;;;;;5049727;28;20025;-80
2022/12/04 00:48:33;;;;;;;32.92;14.95;;;1.00;99.90;;;;;;5034119;28;20020;-79
2022/12/04 00:51:08;;;;;;;30.83;15.20;;;1.00;99.90;;;;;;5034576;28;20104;-80
2022/12/04 00:53:34;;;;;;;31.60;14.50;;;1.00;99.90;;;;;;5034561;28;20478;-79
2022/12/04 00:56:08;;;;;;;34.22;15.50;;;1.00;99.90;;;;;;5048990;28;20033;-79
2022/12/04 00:58:34;;;;;;;30.83;15.20;;;1.10;99.90;;;;;;5054661;28;20109;-79
2022/12/04 01:01:07;;;;;;;30.95;14.70;;;1.00;99.90;;;;;;5054241;28;20052;-79
2022/12/04 01:03:33;;;;;;;;;;;1.00;99.90;;;;;;5054426;28;20385;-78
2022/12/04 01:06:00;;;;;;;29.23;13.18;;;0.90;99.90;;;;;;5053330;28;19916;-80
2022/12/04 01:08:26;;;;;;;29.55;14.27;;;0.90;99.90;;;;;;5035720;28;20029;-80
2022/12/04 01:10:51;;;;;;;33.47;14.38;;;1.00;99.90;;;;;;5053396;28;20473;-79
2022/12/04 01:13:17;;;;;;;29.92;14.55;;;0.90;99.90;;;;;;5052493;28;20029;-79
2022/12/04 01:15:43;;;;;;;29.38;14.50;;;1.00;99.90;;;;;;5044177;28;20036;-79
2022/12/04 01:18:11;;;;;;;30.90;14.85;;;0.90;99.90;;;;;;5035982;28;20377;-79
2022/12/04 01:20:36;;;;;;;30.50;14.98;;;0.90;99.90;;;;;;5036045;28;20079;-79
2022/12/04 01:23:02;;;;;;;26.77;13.45;;;0.90;99.90;;;;;;5018637;28;20474;-78
2022/12/04 01:25:28;;;;;;;26.35;13.38;;;0.90;99.90;;;;;;5036202;28;20029;-79
2022/12/04 01:27:53;;;;;;;29.95;13.20;;;0.90;99.90;;;;;;5035474;28;20025;-78
2022/12/04 01:30:19;;;;;;;28.83;14.55;;;1.00;99.90;;;;;;5037169;28;20022;-79
2022/12/04 01:32:45;;;;;;;26.52;12.57;;;1.00;99.90;;;;;;5037543;28;20035;-79
2022/12/04 01:35:10;;;;;;;27.88;13.45;;;1.00;99.90;;;;;;5037384;28;20038;-80
2022/12/04 01:37:37;;;;;;;28.23;13.38;;;1.00;99.90;;;;;;5036322;28;20026;-79
2022/12/04 01:40:03;;;;;;;26.38;14.18;;;1.00;99.90;;;;;;5037146;28;20061;-79
2022/12/04 01:42:29;;;;;;;25.98;12.88;;;1.00;99.90;;;;;;5036893;28;20029;-79
2022/12/04 01:45:26;;;;;;;26.33;12.65;;;0.90;99.90;;;;;;5036785;28;20029;-79
2022/12/04 01:47:54;;;;;;;22.95;12.15;;;1.00;99.90;;;;;;5035669;28;20509;-79
2022/12/04 01:50:21;;;;;;;25.30;13.15;;;1.00;99.90;;;;;;5019294;28;20029;-79
2022/12/04 01:52:46;;;;;;;25.40;12.57;;;1.00;99.90;;;;;;5036700;28;20026;-79
2022/12/04 01:55:12;;;;;;;30.27;13.43;;;1.00;99.90;;;;;;5037180;28;20075;-79
2022/12/04 01:57:38;;;;;;;27.27;12.57;;;0.90;99.90;;;;;;5018588;28;20060;-79
2022/12/04 02:00:10;;;;;;;25.58;13.73;;;0.90;99.90;;;;;;5036247;28;20022;-79
2022/12/04 02:02:38;;;;;;;29.15;13.88;;;0.90;99.90;;;;;;5048563;28;20040;-79
2022/12/04 02:05:07;;;;;;;26.95;13.73;;;0.90;99.90;;;;;;5038546;28;20064;-79
2022/12/04 02:07:34;;;;;;;22.83;12.40;;;0.90;99.90;;;;;;5037632;28;20445;-79
2022/12/04 02:10:05;;;;;;;24.25;11.93;;;0.90;99.90;;;;;;5056167;28;20166;-79
2022/12/04 02:12:39;;;;;;;22.83;11.60;;;0.90;99.90;;;;;;5032643;28;20022;-79
2022/12/04 02:15:27;;;;;;;21.25;11.07;;;0.90;99.90;;;;;;5036560;28;20030;-79
2022/12/04 02:18:01;;;;;;;24.35;13.27;;;1.00;99.90;;;;;;5035432;28;20371;-79
2022/12/04 02:20:48;;;;;;;19.95;11.50;;;1.00;99.90;;;;;;5036193;28;20100;-79
2022/12/04 02:23:34;;;;;;;25.48;11.88;;;1.00;99.90;;;;;;5036049;28;20030;-79
2022/12/04 02:26:05;;;;;;;22.60;11.43;;;1.00;99.90;;;;;;5036022;28;20025;-79
2022/12/04 02:28:42;;;;;;;23.85;11.15;;;1.00;99.90;;;;;;5036690;28;20378;-79
2022/12/04 02:31:15;;;;;;;21.38;11.57;;;1.00;99.90;;;;;;5018803;28;20087;-78
2022/12/04 02:34:02;;;;;;;22.10;11.93;;;1.00;99.90;;;;;;5017576;28;20057;-80
2022/12/04 02:36:31;;;;;;;23.52;12.85;;;0.90;99.90;;;;;;5035506;28;20056;-79
2022/12/04 02:39:20;;;;;;;24.23;11.80;;;0.90;99.90;;;;;;5035052;28;20321;-78
2022/12/04 02:41:54;;;;;;;20.10;11.10;;;0.90;99.90;;;;;;5035323;28;20021;-78
2022/12/04 02:44:29;;;;;;;18.17;10.00;;;1.00;99.90;;;;;;5034808;28;20053;-78
2022/12/04 02:47:03;;;;;;;26.75;14.55;;;1.00;99.90;;;;;;5033903;28;20022;-79
2022/12/04 02:49:35;;;;;;;30.25;15.48;;;1.00;99.90;;;;;;5036924;28;20047;-78
2022/12/04 02:52:05;;;;;;;28.80;14.60;;;1.00;99.90;;;;;;5034726;28;20056;-78
2022/12/04 02:54:38;;;;;;;29.77;14.35;;;0.90;99.90;;;;;;5016256;28;20087;-78
2022/12/04 02:57:09;;;;;;;26.33;14.55;;;0.90;99.90;;;;;;5033721;28;20068;-78
2022/12/04 02:59:41;;;;;;;30.08;15.57;;;0.80;99.90;;;;;;5034466;28;20052;-78
2022/12/04 03:02:09;;;;;;;;;;;0.70;99.90;;;;;;5034589;28;20037;-78
2022/12/04 03:04:38;;;;;;;28.63;14.07;;;0.70;99.90;;;;;;5034057;28;19916;-78
2022/12/04 03:07:12;;;;;;;29.02;14.40;;;0.70;99.90;;;;;;5036185;28;20482;-78
2022/12/04 03:09:46;;;;;;;33.50;15.80;;;0.80;99.90;;;;;;5047971;28;20029;-79
2022/12/04 03:12:18;;;;;;;31.30;15.43;;;0.80;99.90;;;;;;5038287;28;20026;-79
2022/12/04 03:14:53;;;;;;;28.00;13.95;;;0.80;99.90;;;;;;5040626;28;20059;-79
2022/12/04 03:17:35;;;;;;;25.10;12.95;;;0.80;99.90;;;;;;5034048;28;20037;-79
2022/12/04 03:20:08;;;;;;;25.85;13.68;;;0.80;99.90;;;;;;5034046;28;20033;-79
2022/12/04 03:22:38;;;;;;;24.25;13.48;;;0.80;99.90;;;;;;5039258;28;20029;-79
2022/12/04 03:25:06;;;;;;;27.77;14.13;;;0.70;99.90;;;;;;5033905;28;20112;-79
2022/12/04 03:27:53;;;;;;;28.48;14.15;;;0.80;99.90;;;;;;5033691;28;20077;-78
2022/12/04 03:30:21;;;;;;;26.60;13.07;;;0.80;99.90;;;;;;5048353;28;20013;-78
2022/12/04 03:32:59;;;;;;;25.23;14.20;;;0.80;99.90;;;;;;5053231;28;20029;-78
2022/12/04 03:35:43;;;;;;;24.75;13.00;;;0.90;99.90;;;;;;5053410;28;20036;-78
2022/12/04 03:38:35;;;;;;;28.50;13.75;;;0.90;99.90;;;;;;5054192;28;20036;-78
2022/12/04 03:41:07;;;;;;;25.10;12.65;;;0.80;99.90;;;;;;5054769;28;20028;-78
2022/12/04 03:43:50;;;;;;;21.17;12.20;;;0.80;99.90;;;;;;5055616;28;20044;-78
2022/12/04 03:46:50;;;;;;;22.05;11.48;;;0.80;99.90;;;;;;5050118;28;20482;-78
2022/12/04 03:49:39;;;;;;;21.85;11.50;;;0.80;99.90;;;;;;5036175;28;20064;-79
2022/12/04 03:52:33;;;;;;;22.38;11.55;;;0.80;99.90;;;;;;5040371;28;20025;-78
2022/12/04 03:55:05;;;;;;;21.05;11.40;;;0.80;99.90;;;;;;5039847;28;20037;-78
2022/12/04 03:57:37;;;;;;;21.20;11.57;;;0.80;99.90;;;;;;5034397;28;20032;-78
2022/12/04 04:00:13;;;;;;;24.33;13.07;;;0.80;99.90;;;;;;5019573;28;20051;-78
2022/12/04 04:02:47;;;;;;;23.33;11.88;;;0.90;99.90;;;;;;5035218;28;20029;-78
2022/12/04 04:05:14;;;;;;;26.98;13.45;;;0.90;99.90;;;;;;5037756;28;20018;-79
2022/12/04 04:07:47;;;;;;;23.58;13.57;;;0.90;99.90;;;;;;5023731;28;20025;-79
2022/12/04 04:10:17;;;;;;;22.15;12.48;;;0.90;99.90;;;;;;5034151;28;20390;-78
2022/12/04 04:24:13;;;;;;;21.77;11.98;;;0.90;99.90;;;;;;5040272;28;20102;-78
2022/12/04 04:24:14;;;;;;;22.58;12.65;;;0.80;99.90;;;;;;5032932;28;20075;-78
2022/12/04 04:26:45;;;;;;;26.15;12.50;;;0.80;99.90;;;;;;5032019;28;20358;-79
2022/12/04 04:29:11;;;;;;;26.75;14.50;;;0.80;99.90;;;;;;5033135;28;20025;-79
2022/12/04 04:32:22;;;;;;;25.63;14.18;;;0.90;99.90;;;;;;5015791;28;20072;-78
2022/12/04 04:34:49;;;;;;;27.50;13.82;;;0.80;99.90;;;;;;5046311;28;20045;-78
2022/12/04 04:37:50;;;;;;;25.65;13.90;;;0.80;99.90;;;;;;5033784;28;20110;-77
2022/12/04 04:40:28;;;;;;;23.92;13.27;;;0.90;99.90;;;;;;5051929;28;20029;-78
2022/12/04 04:43:07;;;;;;;22.67;13.45;;;0.80;99.90;;;;;;5052543;28;20067;-78
2022/12/04 04:45:41;;;;;;;23.02;12.63;;;0.80;99.90;;;;;;5052532;28;20029;-78
2022/12/04 04:48:26;;;;;;;26.67;14.30;;;0.80;99.90;;;;;;5013920;28;20079;-78
2022/12/04 04:50:52;;;;;;;27.67;14.32;;;0.80;99.90;;;;;;5034493;28;20067;-79
2022/12/04 04:53:23;;;;;;;25.95;14.05;;;0.80;99.90;;;;;;5056240;28;20107;-78
2022/12/04 04:55:49;;;;;;;24.27;12.85;;;0.80;99.90;;;;;;5056782;28;20032;-78
2022/12/04 04:58:18;;;;;;;21.83;13.07;;;0.80;99.90;;;;;;5055806;28;20025;-79
2022/12/04 05:00:55;;;;;;;22.67;12.05;;;0.80;99.90;;;;;;5038660;28;20044;-79
2022/12/04 05:03:21;;;;;;;23.35;12.68;;;0.90;99.90;;;;;;5056194;28;20095;-79
2022/12/04 05:05:46;;;;;;;23.75;13.13;;;0.90;99.90;;;;;;5056746;28;20025;-78
2022/12/04 05:08:12;;;;;;;24.15;13.15;;;0.90;99.90;;;;;;5056128;28;20029;-78
2022/12/04 05:10:37;;;;;;;22.67;12.77;;;0.90;99.90;;;;;;5056486;28;20108;-78
2022/12/04 05:13:03;;;;;;;22.08;12.10;;;0.90;99.90;;;;;;5054920;28;20025;-78
2022/12/04 05:15:29;;;;;;;22.33;12.43;;;1.00;99.90;;;;;;5056331;28;20025;-79
2022/12/04 05:17:54;;;;;;;22.77;12.02;;;1.00;99.90;;;;;;5036936;28;20025;-78
2022/12/04 05:20:20;;;;;;;23.50;12.20;;;1.00;99.90;;;;;;5036304;28;20394;-78
2022/12/04 05:22:45;;;;;;;19.45;10.75;;;1.10;99.90;;;;;;5036036;28;20061;-78
2022/12/04 05:25:11;;;;;;;24.25;12.75;;;1.20;99.90;;;;;;5035675;28;20030;-78
2022/12/04 05:27:37;;;;;;;22.73;12.30;;;1.20;99.90;;;;;;5034993;28;20424;-79
2022/12/04 05:30:03;;;;;;;21.80;12.77;;;1.20;99.90;;;;;;5036303;28;20026;-78
2022/12/04 05:32:29;;;;;;;24.42;12.35;;;1.10;99.90;;;;;;5038606;28;20029;-78
2022/12/04 05:34:56;;;;;;;19.48;11.32;;;1.20;99.90;;;;;;5048695;28;20044;-78
2022/12/04 05:37:22;;;;;;;24.83;12.93;;;1.20;99.90;;;;;;5035391;28;20022;-79
2022/12/04 05:39:48;;;;;;;21.00;11.65;;;1.20;99.90;;;;;;5035975;28;20438;-79
2022/12/04 05:42:14;;;;;;;27.58;13.88;;;1.20;99.90;;;;;;5035550;28;20040;-78
2022/12/04 05:44:40;;;;;;;24.45;13.80;;;1.20;99.90;;;;;;5017790;28;20112;-78
2022/12/04 05:47:06;;;;;;;23.95;13.20;;;1.10;99.90;;;;;;5035199;28;20104;-79
2022/12/04 05:49:33;;;;;;;23.08;12.35;;;1.10;99.90;;;;;;5035994;28;20160;-79
2022/12/04 05:51:59;;;;;;;26.92;13.35;;;1.10;99.90;;;;;;5036069;28;20101;-79
2022/12/04 05:54:25;;;;;;;25.08;12.90;;;1.10;99.90;;;;;;5051717;28;20024;-78
2022/12/04 05:56:50;;;;;;;25.30;13.13;;;1.10;99.90;;;;;;5035376;28;20025;-78
2022/12/04 05:59:17;;;;;;;23.58;11.93;;;1.10;99.90;;;;;;5035944;28;20072;-78
2022/12/04 06:01:43;;;;;;;24.63;11.38;;;1.10;99.90;;;;;;5035299;28;20047;-77
2022/12/04 06:04:10;;;;;;;20.35;11.13;;;1.10;99.90;;;;;;5038330;28;20155;-78
2022/12/04 06:06:37;;;;;;;22.95;12.52;;;1.10;99.90;;;;;;5040081;28;20029;-78
2022/12/04 06:09:04;;;;;;;26.20;14.25;;;1.10;99.90;;;;;;5038645;28;20053;-78
2022/12/04 06:11:33;;;;;;;23.55;12.63;;;1.10;99.90;;;;;;5035672;28;20036;-80
2022/12/04 06:14:01;;;;;;;24.55;12.35;;;1.00;99.90;;;;;;5040962;28;20056;-82
2022/12/04 06:16:29;;;;;;;24.77;12.70;;;1.10;99.90;;;;;;5040520;28;20104;-80
2022/12/04 06:18:57;;;;;;;21.73;13.18;;;1.10;99.90;;;;;;5036295;28;20036;-80
2022/12/04 06:21:25;;;;;;;20.80;11.75;;;1.00;99.90;;;;;;5041531;28;20039;-79
2022/12/04 06:23:51;;;;;;;20.15;11.18;;;1.10;99.90;;;;;;5037147;28;20041;-81
2022/12/04 06:26:18;;;;;;;20.45;11.23;;;1.20;99.90;;;;;;5039686;28;20121;-80
2022/12/04 06:28:44;;;;;;;24.25;12.48;;;1.20;99.90;;;;;;5038247;28;20163;-80
2022/12/04 06:31:11;;;;;;;24.23;12.80;;;1.20;99.90;;;;;;5036197;28;20073;-78
2022/12/04 06:33:38;;;;;;;24.73;13.63;;;1.20;99.90;;;;;;5035938;28;20030;-80
2022/12/04 06:36:10;;;;;;;24.52;12.77;;;1.20;99.90;;;;;;5036270;28;20037;-81
2022/12/04 06:38:36;;;;;;;;;;;1.20;99.90;;;;;;5018955;28;20069;-79
2022/12/04 06:41:07;;;;;;;29.77;14.05;;;1.20;99.90;;;;;;5036284;28;19905;-80
2022/12/04 06:43:36;;;;;;;24.40;14.27;;;1.30;99.90;;;;;;5042145;28;20028;-81
2022/12/04 06:46:23;;;;;;;24.38;12.82;;;1.20;99.90;;;;;;5034115;28;20060;-80
2022/12/04 06:48:49;;;;;;;24.77;13.35;;;1.20;99.90;;;;;;5036438;28;20026;-81
2022/12/04 06:51:22;;;;;;;27.70;14.40;;;1.30;99.90;;;;;;5039616;28;20091;-78
2022/12/04 06:53:48;;;;;;;23.20;13.13;;;1.30;99.90;;;;;;5039445;28;20030;-79
2022/12/04 06:56:17;;;;;;;25.92;12.93;;;1.30;99.90;;;;;;5038173;28;20079;-78
2022/12/04 06:58:46;;;;;;;26.02;13.98;;;1.30;99.90;;;;;;5032087;28;20034;-78
2022/12/04 07:01:15;;;;;;;24.80;13.25;;;1.20;99.90;;;;;;5034745;28;20034;-78
2022/12/04 07:03:41;;;;;;;23.23;12.65;;;1.20;99.90;;;;;;5034290;28;20539;-78
2022/12/04 07:06:16;;;;;;;24.70;13.45;;;1.10;99.90;;;;;;5033690;28;20045;-78
2022/12/04 07:08:44;;;;;;;28.67;14.10;;;1.10;99.90;;;;;;5033855;28;20030;-78
2022/12/04 07:11:10;;;;;;;25.38;14.07;;;1.10;99.90;;;;;;5034623;28;20025;-77
2022/12/04 07:13:36;;;;;;;27.38;13.65;;;1.10;99.90;;;;;;5033887;28;20510;-78
2022/12/04 07:16:04;;;;;;;26.58;13.25;;;1.10;99.90;;;;;;5034353;28;20061;-80
2022/12/04 07:18:30;;;;;;;32.03;15.65;;;1.20;99.90;;;;;;5011214;28;20025;-78
2022/12/04 07:20:57;;;;;;;29.10;15.27;;;1.20;99.90;;;;;;5035628;28;20037;-81
2022/12/04 07:23:22;;;;;;;22.73;12.93;;;1.10;99.90;;;;;;5046678;28;20049;-79
2022/12/04 07:25:48;;;;;;;26.23;13.95;;;1.10;99.90;;;;;;5056660;28;20422;-78
2022/12/04 07:28:14;;;;;;;24.00;13.55;;;1.10;99.90;;;;;;5028851;28;20044;-79
2022/12/04 07:30:39;;;;;;;25.98;13.48;;;1.10;99.90;;;;;;5040355;28;20021;-79
2022/12/04 07:33:05;;;;;;;23.40;12.63;;;1.10;99.90;;;;;;5041806;28;20021;-79
2022/12/04 07:35:31;;;;;;;25.23;13.48;;;1.20;99.90;;;;;;5024034;28;20083;-80
2022/12/04 07:37:56;;;;;;;22.02;11.65;;;1.30;99.90;;;;;;5043810;28;20025;-80
2022/12/04 07:40:22;;;;;;;23.60;12.98;;;1.30;99.90;;;;;;5050354;28;20028;-79
2022/12/04 07:42:48;;;;;;;22.73;12.40;;;1.30;99.90;;;;;;5048345;28;20037;-79
2022/12/04 07:45:13;;;;;;;24.17;12.85;;;1.30;99.90;;;;;;5028797;28;20036;-78
2022/12/04 07:47:39;;;;;;;22.08;12.30;;;1.30;99.90;;;;;;5043241;28;20111;-79
2022/12/04 07:50:06;;;;;;;24.30;13.35;;;1.40;99.90;;;;;;5041863;28;20048;-79
2022/12/04 07:52:36;;;;;;;25.90;13.85;;;1.40;99.90;;;;;;5040722;28;20109;-79
2022/12/04 07:55:01;;;;;;;24.92;13.30;;;1.30;99.90;;;;;;5036590;28;20168;-78
2022/12/04 07:57:27;;;;;;;21.13;12.48;;;1.30;99.90;;;;;;5034266;28;20045;-78
2022/12/04 07:59:53;;;;;;;24.58;13.07;;;1.30;99.90;;;;;;5034884;28;20025;-78
2022/12/04 08:02:19;;;;;;;21.70;11.63;;;1.30;99.90;;;;;;5034493;28;20064;-78
2022/12/04 08:04:45;;;;;;;23.77;11.65;;;1.40;99.90;;;;;;5032865;28;20025;-80
2022/12/04 08:07:11;;;;;;;21.95;12.43;;;1.50;99.90;;;;;;5025769;28;20029;-79
2022/12/04 08:09:37;;;;;;;23.17;11.13;;;1.60;99.90;;;;;;5015930;28;20029;-80
2022/12/04 08:12:02;;;;;;;19.75;11.23;;;1.60;99.90;;;;;;5032990;28;20033;-77
2022/12/04 08:14:28;;;;;;;21.00;11.65;;;1.60;99.90;;;;;;5049935;28;20045;-78
2022/12/04 08:16:54;;;;;;;24.67;12.10;;;1.70;99.90;;;;;;5034785;28;20017;-78
2022/12/04 08:19:20;;;;;;;23.73;14.00;;;1.70;99.90;;;;;;5035989;28;20025;-77
2022/12/04 08:21:46;;;;;;;21.80;12.52;;;1.70;99.90;;;;;;5035909;28;20022;-78
2022/12/04 08:24:12;;;;;;;25.30;13.75;;;1.70;99.90;;;;;;5017509;28;20036;-78
2022/12/04 08:26:38;;;;;;;22.45;12.98;;;1.60;99.90;;;;;;5034260;28;20053;-78
2022/12/04 08:29:05;;;;;;;24.15;12.90;;;1.60;99.90;;;;;;5034987;28;20108;-78
2022/12/04 08:31:34;;;;;;;23.33;13.13;;;1.60;99.90;;;;;;5018677;28;20382;-78
2022/12/04 08:34:02;;;;;;;21.08;12.70;;;1.70;99.90;;;;;;5035643;28;20052;-78
2022/12/04 08:36:29;;;;;;;20.45;12.43;;;1.60;99.90;;;;;;5034057;28;20067;-79
2022/12/04 08:38:55;;;;;;;24.30;13.93;;;1.60;99.90;;;;;;5034411;28;20100;-78
2022/12/04 08:41:23;;;;;;;25.85;14.35;;;1.60;99.90;;;;;;5016778;28;20029;-78
2022/12/04 08:43:50;;;;;;;20.65;13.05;;;1.60;99.90;;;;;;5036129;28;20128;-79
2022/12/04 08:46:18;;;;;;;22.52;13.60;;;1.60;99.90;;;;;;5034349;28;20057;-79
2022/12/04 08:48:44;;;;;;;20.65;12.35;;;1.60;99.90;;;;;;5034410;28;20028;-78
2022/12/04 08:51:21;;;;;;;24.10;13.68;;;1.60;99.90;;;;;;5014734;28;20036;-78
2022/12/04 08:53:51;;;;;;;22.00;12.88;;;1.70;99.90;;;;;;5036659;28;20117;-78
2022/12/04 08:56:17;;;;;;;21.40;11.75;;;1.80;99.90;;;;;;5038884;28;20223;-78
2022/12/04 08:58:42;;;;;;;19.95;11.57;;;1.90;99.90;;;;;;5041618;28;20127;-77
2022/12/04 09:01:11;;;;;;;21.60;12.50;;;2.00;99.90;;;;;;5032475;28;20029;-78
2022/12/04 09:03:38;;;;;;;22.42;13.23;;;2.10;99.90;;;;;;5039133;28;20350;-77
2022/12/04 09:06:05;;;;;;;21.40;12.73;;;2.00;99.90;;;;;;5041663;28;20044;-78
2022/12/04 09:08:31;;;;;;;18.52;11.55;;;2.00;99.90;;;;;;5053618;28;20029;-78
2022/12/04 09:11:10;;;;;;;21.63;12.77;;;2.00;99.90;;;;;;5055128;28;20036;-78
2022/12/04 09:13:37;;;;;;;19.38;12.10;;;2.00;99.90;;;;;;5025961;28;20029;-80
2022/12/04 09:16:05;;;;;;;20.85;12.85;;;2.00;99.90;;;;;;5018227;28;20390;-81
2022/12/04 09:18:31;;;;;;;20.23;12.20;;;2.00;99.90;;;;;;5040569;28;20033;-81
2022/12/04 09:20:59;;;;;;;18.33;10.95;;;2.10;99.90;;;;;;5037611;28;20044;-80
2022/12/04 09:23:26;;;;;;;19.67;12.18;;;2.20;99.90;;;;;;5025995;28;20036;-81
2022/12/04 09:25:52;;;;;;;19.45;12.27;;;2.30;99.90;;;;;;5049114;28;20025;-81
2022/12/04 09:28:18;;;;;;;20.90;12.15;;;2.40;99.90;;;;;;5035415;28;20044;-81
2022/12/04 09:30:44;;;;;;;22.80;13.30;;;2.50;99.90;;;;;;5017870;28;20450;-80
2022/12/04 09:33:10;;;;;;;22.75;12.90;;;2.60;99.90;;;;;;5019886;28;20084;-81
2022/12/04 09:35:38;;;;;;;19.20;11.80;;;2.60;99.90;;;;;;5022835;28;20029;-81
2022/12/04 09:38:03;;;;;;;21.48;13.50;;;2.70;99.90;;;;;;5031395;28;20092;-81
2022/12/04 09:40:45;;;;;;;17.73;11.73;;;2.80;99.90;;;;;;5038879;28;20060;-80
2022/12/04 09:43:41;;;;;;;25.50;14.45;;;2.90;99.90;;;;;;5045778;28;20424;-81
2022/12/04 09:46:17;;;;;;;23.55;12.43;;;2.80;99.90;;;;;;5042852;28;20065;-81
2022/12/04 09:48:47;;;;;;;20.58;11.95;;;2.70;99.90;;;;;;5038968;28;20057;-81
2022/12/04 09:51:19;;;;;;;19.77;12.10;;;2.70;99.90;;;;;;5057735;28;20025;-80
2022/12/04 09:53:58;;;;;;;15.07;10.50;;;2.60;99.90;;;;;;5040994;28;20025;-81
2022/12/04 09:56:28;;;;;;;20.58;12.65;;;2.70;99.90;;;;;;5055574;28;20379;-80
2022/12/04 09:59:14;;;;;;;19.08;12.35;;;2.80;99.90;;;;;;5045419;28;20588;-79
2022/12/04 10:01:52;;;;;;;17.95;11.35;;;2.90;99.90;;;;;;5051865;28;20029;-80
2022/12/04 10:04:18;;;;;;;16.92;10.57;;;2.90;99.90;;;;;;5069266;28;20440;-80
2022/12/04 10:06:53;;;;;;;19.70;11.82;;;3.00;99.90;;;;;;5058416;28;20047;-81
2022/12/04 10:09:40;;;;;;;20.67;11.85;;;3.00;99.90;;;;;;5058630;28;20025;-81
2022/12/04 10:12:15;;;;;;;19.80;11.35;;;2.90;99.90;;;;;;5057678;28;20078;-81
2022/12/04 10:14:58;;;;;;;18.38;10.55;;;2.80;99.90;;;;;;5046837;28;20367;-81
2022/12/04 10:17:56;;;;;;;19.63;12.18;;;2.80;99.90;;;;;;5041207;28;20037;-81
2022/12/04 10:21:04;;;;;;;18.40;11.57;;;2.80;99.90;;;;;;4996122;28;20049;-81
2022/12/04 10:23:47;;;;;;;20.58;11.77;;;2.80;99.90;;;;;;4989927;28;20503;-81
2022/12/04 10:26:20;;;;;;;18.48;12.05;;;2.90;99.90;;;;;;5023816;28;20042;-81
2022/12/04 10:28:54;;;;;;;20.15;11.60;;;2.90;99.90;;;;;;5042453;28;20025;-80
2022/12/04 10:31:19;;;;;;;19.20;10.98;;;2.90;99.90;;;;;;5033078;28;20022;-81
2022/12/04 10:33:55;;;;;;;16.98;10.00;;;3.00;99.90;;;;;;5039296;28;20033;-81
2022/12/04 10:36:25;;;;;;;16.85;10.38;;;3.00;99.90;;;;;;5039607;28;20025;-81
2022/12/04 10:38:54;;;;;;;21.00;11.95;;;3.10;99.90;;;;;;5019775;28;20029;-80
2022/12/04 10:41:39;;;;;;;18.95;11.23;;;3.10;99.90;;;;;;5058120;28;20029;-81
2022/12/04 10:44:05;;;;;;;18.17;11.02;;;3.00;99.90;;;;;;5053465;28;20475;-81
2022/12/04 10:46:33;;;;;;;18.85;11.32;;;3.00;99.90;;;;;;5042353;28;20041;-81
2022/12/04 10:49:08;;;;;;;16.75;10.43;;;2.90;99.90;;;;;;5040175;28;20152;-80
2022/12/04 10:51:42;;;;;;;17.92;10.95;;;3.00;99.90;;;;;;5033684;28;20064;-79
2022/12/04 10:54:32;;;;;;;21.13;11.52;;;3.00;99.90;;;;;;5020798;28;20025;-79
2022/12/04 10:57:05;;;;;;;22.38;12.43;;;3.00;99.90;;;;;;5055892;28;20388;-80
2022/12/04 10:59:31;;;;;;;23.10;12.93;;;3.00;99.90;;;;;;5039661;28;20087;-79
2022/12/04 11:02:10;;;;;;;22.95;13.13;;;2.90;99.90;;;;;;5041577;28;20075;-79
2022/12/04 11:04:36;;;;;;;23.65;13.27;;;2.80;99.90;;;;;;5041099;28;20056;-79
2022/12/04 11:07:08;;;;;;;21.13;12.10;;;2.70;99.90;;;;;;5019031;28;20037;-79
2022/12/04 11:09:34;;;;;;;20.10;12.50;;;2.70;99.90;;;;;;5039064;28;20021;-79
2022/12/04 11:12:15;;;;;;;20.58;11.90;;;2.70;99.90;;;;;;5039707;28;20040;-79
2022/12/04 11:14:41;;;;;;;22.45;14.05;;;2.80;99.90;;;;;;5040260;28;20041;-79
2022/12/04 11:17:14;;;;;;;20.90;11.55;;;2.90;99.90;;;;;;5041029;28;20044;-79
2022/12/04 11:19:39;;;;;;;17.02;9.68;;;3.00;99.90;;;;;;5038874;28;20021;-79
2022/12/04 11:22:16;;;;;;;19.90;12.60;;;3.10;99.90;;;;;;5058304;28;20035;-79
2022/12/04 11:24:48;;;;;;;22.35;12.38;;;3.10;99.90;;;;;;5046642;28;20448;-79
2022/12/04 11:27:30;;;;;;;18.83;11.35;;;3.10;99.90;;;;;;5031902;28;20025;-78
2022/12/04 11:29:56;;;;;;;19.88;11.88;;;3.10;99.90;;;;;;5018777;28;20028;-78
2022/12/04 11:32:26;;;;;;;20.63;12.65;;;3.30;99.90;;;;;;5035973;28;20780;-79
2022/12/04 11:34:56;;;;;;;16.83;10.38;;;3.30;99.90;;;;;;5037542;28;20032;-78
2022/12/04 11:37:26;;;;;;;19.65;11.25;;;3.20;99.90;;;;;;5046384;28;20068;-79
2022/12/04 11:39:53;;;;;;;21.63;11.48;;;3.20;99.90;;;;;;5047164;28;20111;-79
2022/12/04 11:42:25;;;;;;;21.00;11.90;;;3.20;99.90;;;;;;5049192;28;20026;-79
2022/12/04 11:45:12;;;;;;;18.15;11.77;;;3.10;99.90;;;;;;5052404;28;20043;-79
2022/12/04 11:47:38;;;;;;;20.45;11.75;;;3.10;99.90;;;;;;5046275;28;20441;-77
2022/12/04 11:50:37;;;;;;;22.75;12.18;;;3.10;99.90;;;;;;5045748;28;20029;-78
2022/12/04 11:53:36;;;;;;;19.02;11.70;;;3.00;99.90;;;;;;5045547;28;20032;-78
2022/12/04 11:56:14;;;;;;;20.83;12.07;;;3.00;99.90;;;;;;5022701;28;20029;-78
2022/12/04 11:59:01;;;;;;;24.15;12.85;;;3.00;99.90;;;;;;5047319;28;20028;-79
2022/12/04 12:01:36;;;;;;;19.90;10.43;;;3.10;99.90;;;;;;5030623;28;20070;-78
2022/12/04 12:04:17;;;;;;;20.23;10.65;;;3.20;99.90;;;;;;5047739;28;20016;-79
2022/12/04 12:07:12;;;;;;;19.15;11.20;;;3.30;99.90;;;;;;5023753;28;20121;-79
2022/12/04 12:09:43;;;;;;;19.13;11.90;;;3.30;99.90;;;;;;5029283;28;20033;-78
2022/12/04 12:12:52;;;;;;;19.73;11.53;;;3.30;99.90;;;;;;5033705;28;20425;-79
2022/12/04 12:15:32;;;;;;;18.02;10.43;;;3.20;99.90;;;;;;5044523;28;20116;-79
2022/12/04 12:18:07;;;;;;;20.52;11.05;;;3.30;99.90;;;;;;5027351;28;20367;-78
2022/12/04 12:21:21;;;;;;;17.42;10.20;;;3.30;99.90;;;;;;5027260;28;20060;-79
2022/12/04 12:24:06;;;;;;;14.80;9.43;;;3.30;99.90;;;;;;5039619;28;20029;-79
2022/12/04 12:26:58;;;;;;;14.73;9.18;;;3.40;99.90;;;;;;5046054;28;20048;-78
2022/12/04 12:29:41;;;;;;;14.88;9.35;;;3.50;99.90;;;;;;5024912;28;20029;-79
2022/12/04 12:32:22;;;;;;;13.85;8.98;;;3.60;99.90;;;;;;5039674;28;20037;-79
2022/12/04 12:34:48;;;;;;;14.65;8.65;;;3.70;99.90;;;;;;5040352;28;20025;-79
2022/12/04 12:37:38;;;;;;;13.07;8.73;;;3.80;99.90;;;;;;5057456;28;20065;-81
2022/12/04 12:40:15;;;;;;;17.83;10.80;;;3.90;99.90;;;;;;5029840;28;20037;-78
2022/12/04 12:43:00;;;;;;;20.67;11.25;;;3.80;99.90;;;;;;5037220;28;20052;-79
2022/12/04 12:46:05;;;;;;;16.80;9.35;;;3.70;99.90;;;;;;5041088;28;20052;-79
2022/12/04 12:48:48;;;;;;;15.32;9.57;;;3.80;99.90;;;;;;5020159;28;20037;-79
2022/12/04 12:51:41;;;;;;;13.35;8.60;;;3.80;99.90;;;;;;5039499;28;20022;-79
2022/12/04 12:54:37;;;;;;;14.85;8.70;;;3.80;99.90;;;;;;5040906;28;20021;-80
2022/12/04 12:57:21;;;;;;;18.33;11.55;;;3.90;99.90;;;;;;5045124;28;20025;-79
2022/12/04 12:59:52;;;;;;;19.65;11.70;;;3.80;99.90;;;;;;5043821;28;20378;-79
2022/12/04 13:02:56;;;;;;;20.58;11.82;;;3.70;99.90;;;;;;5056614;28;20021;-79
2022/12/04 13:05:30;;;;;;;19.23;11.55;;;3.50;99.90;;;;;;4963669;28;20147;-79
2022/12/04 13:08:26;;;;;;;20.55;12.40;;;3.40;99.90;;;;;;5040845;28;20056;-79
2022/12/04 13:11:04;;;;;;;26.00;13.98;;;3.40;99.90;;;;;;5034620;28;20413;-78
2022/12/04 13:13:34;;;;;;;22.52;13.60;;;3.30;99.90;;;;;;5037370;28;20033;-79